Time;durP1;ratioP1;P1;durP2;ratioP2;P2;SDS_P1;SDS_P2;PMS_P1;PMS_P2;Temp;Humidity;BMP_temperature;BMP_pressure;BME280_temperature;BME280_humidity;BME280_pressure;Samples;Min_cycle;Max_cycle;Signal;HPM_P1;HPM_P2
2023/07/07 00:01:56;;;;;;;4.60;3.95;;;;;;;;;;5049135;27;99145;-78
2023/07/07 00:04:23;;;;;;;7.10;4.05;;;;;;;;;;5050283;27;99857;-79
2023/07/07 00:06:50;;;;;;;4.68;4.38;;;;;;;;;;5049276;27;98586;-76
2023/07/07 00:09:16;;;;;;;5.22;4.72;;;;;;;;;;5050083;27;99296;-78
2023/07/07 00:11:44;;;;;;;5.78;4.50;;;;;;;;;;5049282;27;99967;-78
2023/07/07 00:14:11;;;;;;;6.03;5.25;;;;;;;;;;5049232;27;98261;-78
2023/07/07 00:16:38;;;;;;;5.20;4.78;;;;;;;;;;5049763;27;99621;-78
2023/07/07 00:19:09;;;;;;;6.68;5.05;;;;;;;;;;5049505;27;99882;-78
2023/07/07 00:21:36;;;;;;;7.32;5.10;;;;;;;;;;5052248;27;98192;-78
2023/07/07 00:24:05;;;;;;;5.20;4.68;;;;;;;;;;5048870;27;101345;-77
2023/07/07 00:26:32;;;;;;;6.40;5.20;;;;;;;;;;5051148;27;101831;-76
2023/07/07 00:29:00;;;;;;;4.78;4.40;;;;;;;;;;5059714;27;98192;-77
2023/07/07 00:31:27;;;;;;;4.97;4.68;;;;;;;;;;5056717;27;98144;-77
2023/07/07 00:33:54;;;;;;;9.15;4.72;;;;;;;;;;5051163;27;98175;-78
2023/07/07 00:36:21;;;;;;;5.63;5.20;;;;;;;;;;5049120;27;98518;-76
2023/07/07 00:38:48;;;;;;;9.13;5.13;;;;;;;;;;5049617;27;98604;-78
2023/07/07 00:41:14;;;;;;;5.68;5.07;;;;;;;;;;5047295;27;98334;-77
2023/07/07 00:43:41;;;;;;;11.48;5.53;;;;;;;;;;5052155;27;98329;-76
2023/07/07 00:46:08;;;;;;;5.32;4.93;;;;;;;;;;5049432;27;98076;-77
2023/07/07 00:48:40;;;;;;;5.47;5.05;;;;;;;;;;5048623;27;98293;-77
2023/07/07 00:51:06;;;;;;;7.97;5.93;;;;;;;;;;5049783;27;98876;-78
2023/07/07 00:53:34;;;;;;;5.50;5.00;;;;;;;;;;5051124;27;98383;-76
2023/07/07 00:56:05;;;;;;;6.03;5.53;;;;;;;;;;5050932;27;100562;-77
2023/07/07 00:58:36;;;;;;;5.55;5.15;;;;;;;;;;5051218;27;99835;-79
2023/07/07 01:01:06;;;;;;;6.85;5.45;;;;;;;;;;5052511;27;98251;-77
2023/07/07 01:03:38;;;;;;;5.43;4.97;;;;;;;;;;5052101;27;98456;-77
2023/07/07 01:06:06;;;;;;;5.57;5.18;;;;;;;;;;5056294;27;98702;-78
2023/07/07 01:08:36;;;;;;;6.72;5.38;;;;;;;;;;5051796;27;98560;-78
2023/07/07 01:11:04;;;;;;;5.78;5.28;;;;;;;;;;5052101;27;99230;-78
2023/07/07 01:13:32;;;;;;;6.25;5.63;;;;;;;;;;5052482;27;98307;-77
2023/07/07 01:15:58;;;;;;;10.35;6.03;;;;;;;;;;5052672;27;99008;-78
2023/07/07 01:18:33;;;;;;;6.72;5.95;;;;;;;;;;5051385;27;98786;-78
2023/07/07 01:21:03;;;;;;;10.15;5.68;;;;;;;;;;5052540;27;98570;-77
2023/07/07 01:23:49;;;;;;;6.38;5.82;;;;;;;;;;5050718;27;98983;-77
2023/07/07 01:26:27;;;;;;;6.78;5.35;;;;;;;;;;5055714;27;98801;-77
2023/07/07 01:28:58;;;;;;;6.65;5.97;;;;;;;;;;5052773;27;98498;-77
2023/07/07 01:31:28;;;;;;;6.72;5.93;;;;;;;;;;5051907;27;98890;-77
2023/07/07 01:33:56;;;;;;;9.02;6.55;;;;;;;;;;5052628;27;98084;-77
2023/07/07 01:36:22;;;;;;;6.80;6.20;;;;;;;;;;5052627;27;98257;-76
2023/07/07 01:38:49;;;;;;;11.68;6.65;;;;;;;;;;5052017;27;99819;-76
2023/07/07 01:41:22;;;;;;;8.93;6.90;;;;;;;;;;5056313;27;98330;-77
2023/07/07 01:43:49;;;;;;;9.45;6.47;;;;;;;;;;5054890;27;100245;-78
2023/07/07 01:46:38;;;;;;;12.50;6.40;;;;;;;;;;5060682;27;98868;-77
2023/07/07 01:49:09;;;;;;;6.97;6.43;;;;;;;;;;5067025;27;98235;-77
2023/07/07 01:51:49;;;;;;;7.45;6.47;;;;;;;;;;5056709;27;98792;-78
2023/07/07 01:54:19;;;;;;;7.43;6.80;;;;;;;;;;5052640;27;98170;-78
2023/07/07 01:56:47;;;;;;;14.48;6.40;;;;;;;;;;5050713;27;101396;-78
2023/07/07 01:59:15;;;;;;;11.57;6.80;;;;;;;;;;5051242;27;98798;-76
2023/07/07 02:01:43;;;;;;;7.18;6.65;;;;;;;;;;5050302;27;98899;-78
2023/07/07 02:04:10;;;;;;;11.93;6.68;;;;;;;;;;5051632;27;98921;-78
2023/07/07 02:06:37;;;;;;;7.47;6.68;;;;;;;;;;5048498;27;99643;-78
2023/07/07 02:09:04;;;;;;;7.45;6.72;;;;;;;;;;5052087;27;98268;-78
2023/07/07 02:11:32;;;;;;;9.10;6.88;;;;;;;;;;5054706;27;99296;-77
2023/07/07 02:13:59;;;;;;;8.45;6.78;;;;;;;;;;5049869;27;98548;-78
2023/07/07 02:16:27;;;;;;;6.97;6.47;;;;;;;;;;5051463;27;99259;-77
2023/07/07 02:18:54;;;;;;;8.05;7.22;;;;;;;;;;5051312;27;99933;-77
2023/07/07 02:21:21;;;;;;;7.40;6.78;;;;;;;;;;5051172;27;98250;-79
2023/07/07 02:23:50;;;;;;;9.23;6.43;;;;;;;;;;5050477;27;98432;-79
2023/07/07 02:26:20;;;;;;;7.30;6.43;;;;;;;;;;5044338;27;98773;-79
2023/07/07 02:28:48;;;;;;;7.47;6.88;;;;;;;;;;5030398;28;98201;-76
2023/07/07 02:31:15;;;;;;;8.07;7.25;;;;;;;;;;5031381;27;98975;-77
2023/07/07 02:33:42;;;;;;;8.18;7.35;;;;;;;;;;5034354;27;99191;-78
2023/07/07 02:36:11;;;;;;;7.82;7.13;;;;;;;;;;5031040;28;98915;-78
2023/07/07 02:38:37;;;;;;;7.65;6.95;;;;;;;;;;5029415;28;99829;-78
2023/07/07 02:41:05;;;;;;;8.25;7.45;;;;;;;;;;5030411;27;98586;-78
2023/07/07 02:43:32;;;;;;;9.75;6.90;;;;;;;;;;5047782;27;98280;-79
2023/07/07 02:45:59;;;;;;;7.15;6.63;;;;;;;;;;5049655;27;100096;-79
2023/07/07 02:48:25;;;;;;;7.57;6.82;;;;;;;;;;5048920;27;98418;-75
2023/07/07 02:50:55;;;;;;;20.80;7.60;;;;;;;;;;5050772;27;98508;-77
2023/07/07 02:53:24;;;;;;;8.10;7.40;;;;;;;;;;5051290;27;98844;-78
2023/07/07 02:55:51;;;;;;;8.05;7.25;;;;;;;;;;5052894;27;98454;-77
2023/07/07 02:58:18;;;;;;;10.57;6.78;;;;;;;;;;5049867;27;100380;-78
2023/07/07 03:00:46;;;;;;;8.27;7.32;;;;;;;;;;5050681;27;98261;-78
2023/07/07 03:03:13;;;;;;;7.72;6.90;;;;;;;;;;5049038;27;100702;-78
2023/07/07 03:05:40;;;;;;;9.00;8.18;;;;;;;;;;5050391;27;99921;-78
2023/07/07 03:08:06;;;;;;;13.50;8.23;;;;;;;;;;5050467;27;98373;-78
2023/07/07 03:10:35;;;;;;;11.30;8.20;;;;;;;;;;5048418;27;101007;-77
2023/07/07 03:13:03;;;;;;;8.82;8.13;;;;;;;;;;5049352;27;98885;-78
2023/07/07 03:15:40;;;;;;;8.45;7.75;;;;;;;;;;5047768;27;98245;-77
2023/07/07 03:18:17;;;;;;;8.57;7.97;;;;;;;;;;5031438;28;100497;-79
2023/07/07 03:20:47;;;;;;;9.85;8.85;;;;;;;;;;5029026;27;98508;-76
2023/07/07 03:23:18;;;;;;;9.98;8.35;;;;;;;;;;5028890;28;100827;-76
2023/07/07 03:25:46;;;;;;;12.02;8.60;;;;;;;;;;5028234;27;99958;-77
2023/07/07 03:28:14;;;;;;;9.75;8.60;;;;;;;;;;5030205;27;98277;-78
2023/07/07 03:30:42;;;;;;;9.57;8.48;;;;;;;;;;5028077;27;98635;-77
2023/07/07 03:33:16;;;;;;;11.30;8.40;;;;;;;;;;5036935;27;98828;-77
2023/07/07 03:35:45;;;;;;;11.10;9.38;;;;;;;;;;5050255;27;98594;-78
2023/07/07 03:38:13;;;;;;;9.50;8.52;;;;;;;;;;5051003;27;100723;-79
2023/07/07 03:40:47;;;;;;;10.02;9.00;;;;;;;;;;5049106;27;98297;-78
2023/07/07 03:43:22;;;;;;;17.27;8.97;;;;;;;;;;5049373;27;101067;-78
2023/07/07 03:45:48;;;;;;;9.05;8.05;;;;;;;;;;5047520;27;100970;-78
2023/07/07 03:48:18;;;;;;;9.57;8.73;;;;;;;;;;5048743;27;98617;-78
2023/07/07 03:50:54;;;;;;;11.15;8.40;;;;;;;;;;5048468;27;98479;-77
2023/07/07 03:53:20;;;;;;;9.15;8.18;;;;;;;;;;5048080;27;101584;-78
2023/07/07 03:55:47;;;;;;;7.93;7.35;;;;;;;;;;5048340;27;98213;-79
2023/07/07 03:58:14;;;;;;;9.70;8.35;;;;;;;;;;5049903;27;98183;-78
2023/07/07 04:00:40;;;;;;;15.10;9.52;;;;;;;;;;5051678;27;99024;-79
2023/07/07 04:03:07;;;;;;;10.30;9.10;;;;;;;;;;5050379;27;98368;-77
2023/07/07 04:05:39;;;;;;;9.80;8.80;;;;;;;;;;5046410;27;100951;-78
2023/07/07 04:08:15;;;;;;;9.85;8.85;;;;;;;;;;5047703;27;98276;-78
2023/07/07 04:10:42;;;;;;;11.45;8.85;;;;;;;;;;5050491;27;99529;-77
2023/07/07 04:13:08;;;;;;;14.43;8.65;;;;;;;;;;5049345;27;99271;-77
2023/07/07 04:15:35;;;;;;;10.20;9.00;;;;;;;;;;5048932;27;98236;-76
2023/07/07 04:18:01;;;;;;;13.15;9.75;;;;;;;;;;5049597;27;98224;-76
2023/07/07 04:20:28;;;;;;;10.25;9.20;;;;;;;;;;5029374;27;100859;-77
2023/07/07 04:22:54;;;;;;;9.98;9.07;;;;;;;;;;5032946;27;98309;-77
2023/07/07 04:25:21;;;;;;;12.27;9.20;;;;;;;;;;5043509;27;99325;-77
2023/07/07 04:27:47;;;;;;;11.52;9.13;;;;;;;;;;5037555;27;98813;-77
2023/07/07 04:30:14;;;;;;;10.27;9.27;;;;;;;;;;5033155;27;99356;-77
2023/07/07 04:32:40;;;;;;;19.65;8.90;;;;;;;;;;5032584;27;99928;-76
2023/07/07 04:35:08;;;;;;;9.48;8.50;;;;;;;;;;5032483;28;98457;-77
2023/07/07 04:37:35;;;;;;;12.98;9.15;;;;;;;;;;5035233;27;98726;-77
2023/07/07 04:40:01;;;;;;;12.18;8.40;;;;;;;;;;5037761;27;99025;-76
2023/07/07 04:42:29;;;;;;;8.98;8.00;;;;;;;;;;5052316;27;98319;-78
2023/07/07 04:44:55;;;;;;;9.50;8.40;;;;;;;;;;5056408;27;98595;-76
2023/07/07 04:47:22;;;;;;;9.80;8.40;;;;;;;;;;5053375;27;98350;-76
2023/07/07 04:49:48;;;;;;;16.75;8.88;;;;;;;;;;5053047;27;99315;-77
2023/07/07 04:52:15;;;;;;;8.65;7.60;;;;;;;;;;5052110;27;99832;-76
2023/07/07 04:54:41;;;;;;;8.77;7.97;;;;;;;;;;5052183;27;98417;-77
2023/07/07 04:57:08;;;;;;;11.70;8.98;;;;;;;;;;5053134;27;99591;-76
2023/07/07 04:59:34;;;;;;;8.57;7.78;;;;;;;;;;5052237;27;99076;-77
2023/07/07 05:02:00;;;;;;;11.55;7.32;;;;;;;;;;5054524;27;98563;-77
2023/07/07 05:04:27;;;;;;;10.48;6.78;;;;;;;;;;5055050;27;99384;-76
2023/07/07 05:06:54;;;;;;;9.02;7.60;;;;;;;;;;5061988;27;99874;-77
2023/07/07 05:09:20;;;;;;;8.95;8.00;;;;;;;;;;5062529;27;98266;-77
2023/07/07 05:11:47;;;;;;;12.27;7.20;;;;;;;;;;5059670;27;99268;-77
2023/07/07 05:14:13;;;;;;;7.68;6.85;;;;;;;;;;5052690;27;98257;-76
2023/07/07 05:16:40;;;;;;;10.85;6.68;;;;;;;;;;5051521;27;98758;-77
2023/07/07 05:19:07;;;;;;;10.35;6.85;;;;;;;;;;5052514;27;100258;-77
2023/07/07 05:21:34;;;;;;;7.32;6.53;;;;;;;;;;5052556;27;98230;-76
2023/07/07 05:24:01;;;;;;;11.45;7.63;;;;;;;;;;5052021;27;98518;-78
2023/07/07 05:26:27;;;;;;;7.88;7.18;;;;;;;;;;5052268;27;99970;-78
2023/07/07 05:28:58;;;;;;;10.50;6.60;;;;;;;;;;5056122;27;98109;-78
2023/07/07 05:31:25;;;;;;;8.63;6.68;;;;;;;;;;5051268;27;99024;-77
2023/07/07 05:33:53;;;;;;;12.32;7.40;;;;;;;;;;5051543;27;98688;-78
2023/07/07 05:36:19;;;;;;;8.88;6.47;;;;;;;;;;5052500;27;99244;-78
2023/07/07 05:38:46;;;;;;;13.10;6.38;;;;;;;;;;5050413;27;99938;-77
2023/07/07 05:41:12;;;;;;;6.93;6.22;;;;;;;;;;5052096;27;98268;-78
2023/07/07 05:43:39;;;;;;;6.50;5.95;;;;;;;;;;5051221;27;98506;-76
2023/07/07 05:46:07;;;;;;;6.20;5.60;;;;;;;;;;5051633;27;99139;-76
2023/07/07 05:48:35;;;;;;;6.88;6.20;;;;;;;;;;5054626;27;98283;-76
2023/07/07 05:51:03;;;;;;;9.50;6.05;;;;;;;;;;5050630;27;100638;-76
2023/07/07 05:53:30;;;;;;;11.07;5.55;;;;;;;;;;5051925;27;98278;-77
2023/07/07 05:56:03;;;;;;;6.15;5.53;;;;;;;;;;5051899;27;99543;-77
2023/07/07 05:58:30;;;;;;;12.18;5.07;;;;;;;;;;5051277;27;99950;-78
2023/07/07 06:00:57;;;;;;;10.30;4.88;;;;;;;;;;5045033;27;98270;-78
2023/07/07 06:03:24;;;;;;;5.57;4.43;;;;;;;;;;5045178;27;99706;-78
2023/07/07 06:05:51;;;;;;;4.75;3.70;;;;;;;;;;5045848;27;100024;-78
2023/07/07 06:08:18;;;;;;;4.32;3.90;;;;;;;;;;5049009;27;99909;-78
2023/07/07 06:10:48;;;;;;;4.63;4.15;;;;;;;;;;5053433;27;99369;-78
2023/07/07 06:13:17;;;;;;;6.03;4.32;;;;;;;;;;5050511;27;98282;-77
2023/07/07 06:15:44;;;;;;;3.67;3.38;;;;;;;;;;5047259;27;99328;-76
2023/07/07 06:18:10;;;;;;;5.72;3.50;;;;;;;;;;5048597;27;99433;-76
2023/07/07 06:20:37;;;;;;;5.55;3.72;;;;;;;;;;5049633;27;98038;-77
2023/07/07 06:23:05;;;;;;;4.30;3.90;;;;;;;;;;5048022;27;98628;-76
2023/07/07 06:25:31;;;;;;;5.80;3.17;;;;;;;;;;5049017;27;99849;-75
2023/07/07 06:27:58;;;;;;;10.90;3.88;;;;;;;;;;5049562;27;98233;-75
2023/07/07 06:30:25;;;;;;;5.45;3.10;;;;;;;;;;5050457;27;98370;-75
2023/07/07 06:32:52;;;;;;;3.63;3.33;;;;;;;;;;5052204;27;100323;-78
2023/07/07 06:35:19;;;;;;;6.95;3.28;;;;;;;;;;5051987;27;99400;-75
2023/07/07 06:37:46;;;;;;;2.83;2.65;;;;;;;;;;5049483;27;100033;-78
2023/07/07 06:40:14;;;;;;;4.90;3.17;;;;;;;;;;5047960;27;98572;-76
2023/07/07 06:42:41;;;;;;;3.17;2.55;;;;;;;;;;5051117;27;99672;-76
2023/07/07 06:45:12;;;;;;;9.68;2.67;;;;;;;;;;5049472;27;101257;-76
2023/07/07 06:47:39;;;;;;;5.22;2.58;;;;;;;;;;5049833;27;98357;-77
2023/07/07 06:50:06;;;;;;;11.02;3.47;;;;;;;;;;5048363;27;99331;-76
2023/07/07 06:52:32;;;;;;;3.42;2.72;;;;;;;;;;5048402;27;99180;-76
2023/07/07 06:54:59;;;;;;;3.55;2.92;;;;;;;;;;5051798;27;100211;-76
2023/07/07 06:57:25;;;;;;;4.10;2.97;;;;;;;;;;5048136;27;99049;-76
2023/07/07 06:59:52;;;;;;;3.60;3.08;;;;;;;;;;5041955;27;98326;-77
2023/07/07 07:02:20;;;;;;;6.72;2.63;;;;;;;;;;5047228;27;98886;-78
2023/07/07 07:04:47;;;;;;;2.20;2.00;;;;;;;;;;5049393;27;99863;-77
2023/07/07 07:07:13;;;;;;;4.90;2.80;;;;;;;;;;5049362;27;98370;-75
2023/07/07 07:09:39;;;;;;;6.35;2.80;;;;;;;;;;5049954;27;99321;-76
2023/07/07 07:12:07;;;;;;;6.63;2.50;;;;;;;;;;5047584;27;98967;-76
2023/07/07 07:14:34;;;;;;;2.45;2.20;;;;;;;;;;5037405;27;98998;-77
2023/07/07 07:17:01;;;;;;;6.05;2.60;;;;;;;;;;5035073;27;99378;-75
2023/07/07 07:19:29;;;;;;;3.15;2.30;;;;;;;;;;5038743;27;98907;-74
2023/07/07 07:21:56;;;;;;;3.90;2.75;;;;;;;;;;5050164;27;99562;-76
2023/07/07 07:24:24;;;;;;;2.65;2.35;;;;;;;;;;5049630;27;100136;-75
2023/07/07 07:26:50;;;;;;;3.33;2.30;;;;;;;;;;5050871;27;98243;-75
2023/07/07 07:29:17;;;;;;;2.75;1.98;;;;;;;;;;5049597;27;99472;-75
2023/07/07 07:31:43;;;;;;;5.05;2.38;;;;;;;;;;5048961;27;99111;-72
2023/07/07 07:34:39;;;;;;;4.10;1.90;;;;;;;;;;5048114;27;98380;-72
2023/07/07 07:37:06;;;;;;;6.78;2.20;;;;;;;;;;5030843;27;101232;-72
2023/07/07 07:39:33;;;;;;;4.97;2.13;;;;;;;;;;5040090;27;98294;-72
2023/07/07 07:41:59;;;;;;;5.65;1.73;;;;;;;;;;5049055;27;99016;-72
2023/07/07 07:44:27;;;;;;;7.95;2.28;;;;;;;;;;5049402;27;100007;-79
2023/07/07 07:46:55;;;;;;;5.88;2.30;;;;;;;;;;5050307;27;98242;-79
2023/07/07 07:49:23;;;;;;;4.45;2.22;;;;;;;;;;5050578;27;99333;-79
2023/07/07 07:51:50;;;;;;;2.67;2.17;;;;;;;;;;5049020;27;101526;-79
2023/07/07 07:54:18;;;;;;;3.40;2.20;;;;;;;;;;5050467;27;98289;-79
2023/07/07 07:56:46;;;;;;;6.45;2.40;;;;;;;;;;5048306;27;98724;-79
2023/07/07 07:59:13;;;;;;;5.28;2.15;;;;;;;;;;5052765;27;99699;-79
2023/07/07 08:01:41;;;;;;;4.43;2.00;;;;;;;;;;5049839;27;98407;-79
2023/07/07 08:04:07;;;;;;;4.05;1.73;;;;;;;;;;5050380;27;99885;-79
2023/07/07 08:06:36;;;;;;;2.20;1.83;;;;;;;;;;5039919;27;98250;-79
2023/07/07 08:09:03;;;;;;;2.10;1.95;;;;;;;;;;5031736;27;98643;-80
2023/07/07 08:11:42;;;;;;;3.40;1.98;;;;;;;;;;5038496;27;99117;-79
2023/07/07 08:14:12;;;;;;;3.40;2.20;;;;;;;;;;5041700;27;97901;-78
2023/07/07 08:16:38;;;;;;;5.72;1.77;;;;;;;;;;5041457;28;98658;-79
2023/07/07 08:19:09;;;;;;;3.97;2.17;;;;;;;;;;5028437;28;98801;-80
2023/07/07 08:21:39;;;;;;;2.30;2.10;;;;;;;;;;5046152;27;97944;-80
2023/07/07 08:24:06;;;;;;;2.30;1.98;;;;;;;;;;5030945;27;99262;-80
2023/07/07 08:26:33;;;;;;;1.85;1.55;;;;;;;;;;5029625;27;98946;-79
2023/07/07 08:29:06;;;;;;;4.05;2.75;;;;;;;;;;5029826;27;98491;-80
2023/07/07 08:31:34;;;;;;;2.00;1.80;;;;;;;;;;5029238;28;100018;-80
2023/07/07 08:34:03;;;;;;;3.05;1.70;;;;;;;;;;5027924;27;98338;-80
2023/07/07 08:36:30;;;;;;;3.35;2.15;;;;;;;;;;5029165;27;98859;-80
2023/07/07 08:39:00;;;;;;;2.95;1.95;;;;;;;;;;5029227;27;100115;-80
2023/07/07 08:41:28;;;;;;;3.60;1.77;;;;;;;;;;5032106;27;98499;-79
2023/07/07 08:43:54;;;;;;;3.95;1.65;;;;;;;;;;5032875;27;99453;-79
2023/07/07 08:46:25;;;;;;;3.53;1.52;;;;;;;;;;5029375;27;98312;-80
2023/07/07 08:48:57;;;;;;;4.20;1.45;;;;;;;;;;5032116;27;99565;-79
2023/07/07 08:51:26;;;;;;;3.47;1.98;;;;;;;;;;5032106;28;98180;-79
2023/07/07 08:54:02;;;;;;;2.42;1.80;;;;;;;;;;5029592;28;98291;-80
2023/07/07 08:56:38;;;;;;;4.80;2.15;;;;;;;;;;5028856;27;98687;-79
2023/07/07 08:59:20;;;;;;;2.85;1.58;;;;;;;;;;5046100;27;98264;-79
2023/07/07 09:01:55;;;;;;;3.20;1.80;;;;;;;;;;5048180;27;98295;-79
2023/07/07 09:04:31;;;;;;;3.33;1.60;;;;;;;;;;5049626;27;99544;-79
2023/07/07 09:07:03;;;;;;;2.20;1.83;;;;;;;;;;5052167;27;99327;-79
2023/07/07 09:09:51;;;;;;;4.63;1.73;;;;;;;;;;5047258;27;98629;-80
2023/07/07 09:12:17;;;;;;;1.98;1.65;;;;;;;;;;5006674;27;98914;-79
2023/07/07 09:14:47;;;;;;;4.80;2.08;;;;;;;;;;5046756;27;98753;-79
2023/07/07 09:17:20;;;;;;;1.77;1.67;;;;;;;;;;5032126;27;98319;-77
2023/07/07 09:19:47;;;;;;;2.47;1.73;;;;;;;;;;5032249;27;100195;-79
2023/07/07 09:22:24;;;;;;;3.25;2.15;;;;;;;;;;5031851;27;98555;-79
2023/07/07 09:25:02;;;;;;;2.28;2.05;;;;;;;;;;5032052;27;98521;-78
2023/07/07 09:27:35;;;;;;;4.47;1.90;;;;;;;;;;5031561;27;99912;-79
2023/07/07 09:30:07;;;;;;;4.13;1.80;;;;;;;;;;5034692;27;98404;-79
2023/07/07 09:32:33;;;;;;;1.90;1.40;;;;;;;;;;5031684;27;100382;-78
2023/07/07 09:35:00;;;;;;;4.00;1.98;;;;;;;;;;5033813;27;98483;-76
2023/07/07 09:37:35;;;;;;;1.52;1.42;;;;;;;;;;5031360;27;99953;-79
2023/07/07 09:40:11;;;;;;;2.70;1.42;;;;;;;;;;5051721;27;100160;-80
2023/07/07 09:42:47;;;;;;;1.38;1.23;;;;;;;;;;5052160;27;98313;-79
2023/07/07 09:45:46;;;;;;;1.58;1.48;;;;;;;;;;5052382;27;99885;-78
2023/07/07 09:48:19;;;;;;;1.55;1.45;;;;;;;;;;5007103;27;99895;-78
2023/07/07 09:50:57;;;;;;;1.63;1.45;;;;;;;;;;5054354;27;98136;-78
2023/07/07 09:53:35;;;;;;;3.15;1.60;;;;;;;;;;5051724;27;99818;-78
2023/07/07 09:56:14;;;;;;;3.35;1.90;;;;;;;;;;5051651;27;98925;-78
2023/07/07 09:58:44;;;;;;;2.58;1.80;;;;;;;;;;5049642;27;98414;-78
2023/07/07 10:01:11;;;;;;;3.20;1.67;;;;;;;;;;5051665;27;99842;-78
2023/07/07 10:03:40;;;;;;;1.65;1.35;;;;;;;;;;5050643;27;98233;-78
2023/07/07 10:06:09;;;;;;;1.67;1.55;;;;;;;;;;5050595;27;98648;-77
2023/07/07 10:08:36;;;;;;;1.75;1.65;;;;;;;;;;5050180;27;99653;-73
2023/07/07 10:11:22;;;;;;;1.67;1.58;;;;;;;;;;5051212;27;98575;-74
2023/07/07 10:14:14;;;;;;;1.60;1.45;;;;;;;;;;5052919;27;98779;-78
2023/07/07 10:16:47;;;;;;;1.70;1.58;;;;;;;;;;5029790;27;98232;-77
2023/07/07 10:19:14;;;;;;;1.90;1.80;;;;;;;;;;5030444;27;98744;-77
2023/07/07 10:21:42;;;;;;;1.80;1.70;;;;;;;;;;5030486;27;100091;-77
2023/07/07 10:24:12;;;;;;;3.72;1.75;;;;;;;;;;5030801;27;98337;-77
2023/07/07 10:26:42;;;;;;;2.47;2.07;;;;;;;;;;5029861;27;98439;-77
2023/07/07 10:29:16;;;;;;;2.58;1.40;;;;;;;;;;5030722;27;98924;-79
2023/07/07 10:31:43;;;;;;;3.58;2.10;;;;;;;;;;5032718;27;100777;-77
2023/07/07 10:34:23;;;;;;;2.30;2.08;;;;;;;;;;5031128;27;99544;-78
2023/07/07 10:36:52;;;;;;;3.28;1.73;;;;;;;;;;5033186;27;99194;-78
2023/07/07 10:39:18;;;;;;;2.22;2.00;;;;;;;;;;5042772;27;98392;-78
2023/07/07 10:41:44;;;;;;;2.65;1.92;;;;;;;;;;5048193;27;98932;-78
2023/07/07 10:44:11;;;;;;;1.80;1.55;;;;;;;;;;5035362;27;98295;-79
2023/07/07 10:46:37;;;;;;;4.10;1.60;;;;;;;;;;5032173;27;99634;-79
2023/07/07 10:49:11;;;;;;;1.88;1.40;;;;;;;;;;5043337;27;100126;-78
2023/07/07 10:52:12;;;;;;;2.17;1.70;;;;;;;;;;5050895;27;98239;-77
2023/07/07 10:55:02;;;;;;;3.63;1.80;;;;;;;;;;5050348;27;100887;-77
2023/07/07 10:57:30;;;;;;;5.70;1.63;;;;;;;;;;5036829;27;98962;-76
2023/07/07 11:00:15;;;;;;;4.38;2.38;;;;;;;;;;5054345;27;98302;-77
2023/07/07 11:02:58;;;;;;;7.30;1.88;;;;;;;;;;5030189;27;99898;-78
2023/07/07 11:05:31;;;;;;;3.03;1.60;;;;;;;;;;5051579;27;98261;-78
2023/07/07 11:07:59;;;;;;;5.57;2.17;;;;;;;;;;5054587;27;98768;-78
2023/07/07 11:10:36;;;;;;;1.83;1.67;;;;;;;;;;5057795;27;97966;-78
2023/07/07 11:13:19;;;;;;;3.17;1.88;;;;;;;;;;5053590;27;97964;-78
2023/07/07 11:16:06;;;;;;;1.98;1.83;;;;;;;;;;5047074;27;98332;-78
2023/07/07 11:18:54;;;;;;;1.73;1.63;;;;;;;;;;5033916;27;100259;-78
2023/07/07 11:21:39;;;;;;;4.93;1.70;;;;;;;;;;5031467;28;98665;-77
2023/07/07 11:24:15;;;;;;;1.73;1.63;;;;;;;;;;5033436;27;99332;-79
2023/07/07 11:26:47;;;;;;;2.10;1.90;;;;;;;;;;5029630;27;98525;-77
2023/07/07 11:29:33;;;;;;;2.80;2.05;;;;;;;;;;5029670;27;99423;-77
2023/07/07 11:32:13;;;;;;;1.88;1.73;;;;;;;;;;5030264;27;99925;-77
2023/07/07 11:34:46;;;;;;;2.22;1.90;;;;;;;;;;5039717;27;98317;-76
2023/07/07 11:37:14;;;;;;;2.33;2.10;;;;;;;;;;5048989;27;98657;-78
2023/07/07 11:39:45;;;;;;;2.45;2.17;;;;;;;;;;5048279;27;98871;-78
2023/07/07 11:42:31;;;;;;;2.90;1.67;;;;;;;;;;5051976;27;98180;-77
2023/07/07 11:45:15;;;;;;;4.95;2.00;;;;;;;;;;5049417;27;99847;-77
2023/07/07 11:47:59;;;;;;;2.00;1.90;;;;;;;;;;5035909;27;99014;-77
2023/07/07 11:50:29;;;;;;;9.98;2.20;;;;;;;;;;5049595;27;98488;-76
2023/07/07 11:53:11;;;;;;;8.50;1.95;;;;;;;;;;5050420;27;100160;-77
2023/07/07 11:55:50;;;;;;;4.22;1.70;;;;;;;;;;5050475;27;98182;-77
2023/07/07 11:58:23;;;;;;;3.50;2.10;;;;;;;;;;5049380;27;99642;-78
2023/07/07 12:00:56;;;;;;;3.28;2.10;;;;;;;;;;5049378;27;99286;-77
2023/07/07 12:03:33;;;;;;;2.72;2.10;;;;;;;;;;5050166;27;98140;-77
2023/07/07 12:06:02;;;;;;;4.43;2.10;;;;;;;;;;5050036;27;99367;-77
2023/07/07 12:08:40;;;;;;;3.45;1.90;;;;;;;;;;5051877;27;100353;-77
2023/07/07 12:11:08;;;;;;;2.03;1.77;;;;;;;;;;5049664;27;98986;-77
2023/07/07 12:13:38;;;;;;;1.70;1.60;;;;;;;;;;5039121;27;100272;-77
2023/07/07 12:16:19;;;;;;;2.70;1.90;;;;;;;;;;5046438;27;98229;-78
2023/07/07 12:18:47;;;;;;;2.25;2.05;;;;;;;;;;5042835;27;98495;-78
2023/07/07 12:21:27;;;;;;;5.10;2.60;;;;;;;;;;5028956;27;100537;-77
2023/07/07 12:24:08;;;;;;;1.88;1.77;;;;;;;;;;5028985;27;99290;-77
2023/07/07 12:26:38;;;;;;;1.95;1.85;;;;;;;;;;5038181;27;98384;-77
2023/07/07 12:29:09;;;;;;;3.22;2.40;;;;;;;;;;5048109;27;98963;-76
2023/07/07 12:31:36;;;;;;;4.05;2.00;;;;;;;;;;5051002;27;98399;-77
2023/07/07 12:34:36;;;;;;;5.97;2.08;;;;;;;;;;5049412;27;99969;-76
2023/07/07 12:37:11;;;;;;;2.65;1.95;;;;;;;;;;5049911;27;98250;-77
2023/07/07 12:39:48;;;;;;;2.67;2.47;;;;;;;;;;5046601;27;99288;-77
2023/07/07 12:42:15;;;;;;;4.63;2.15;;;;;;;;;;5049068;27;98871;-77
2023/07/07 12:44:42;;;;;;;6.55;1.77;;;;;;;;;;5049200;27;98309;-77
2023/07/07 12:47:27;;;;;;;3.03;1.95;;;;;;;;;;5049038;27;99202;-77
2023/07/07 12:49:56;;;;;;;2.08;1.73;;;;;;;;;;5052923;27;99920;-77
2023/07/07 12:52:24;;;;;;;2.20;2.00;;;;;;;;;;5050812;27;98310;-77
2023/07/07 12:54:52;;;;;;;6.35;2.42;;;;;;;;;;5054892;27;99334;-77
2023/07/07 12:57:21;;;;;;;3.40;2.05;;;;;;;;;;5052971;27;98262;-77
2023/07/07 12:59:48;;;;;;;2.78;2.20;;;;;;;;;;5051969;27;99308;-77
2023/07/07 13:02:25;;;;;;;4.38;1.80;;;;;;;;;;5052738;27;100161;-77
2023/07/07 13:05:00;;;;;;;2.25;1.98;;;;;;;;;;5052319;27;98202;-77
2023/07/07 13:07:30;;;;;;;2.20;1.98;;;;;;;;;;5051749;27;98443;-77
2023/07/07 13:09:57;;;;;;;2.75;2.42;;;;;;;;;;5052089;27;98913;-78
2023/07/07 13:12:33;;;;;;;3.63;1.88;;;;;;;;;;5054074;27;98286;-77
2023/07/07 13:15:11;;;;;;;2.85;1.90;;;;;;;;;;5053560;27;99264;-77
2023/07/07 13:17:37;;;;;;;4.07;1.95;;;;;;;;;;5039225;27;98806;-77
2023/07/07 13:20:05;;;;;;;3.33;2.13;;;;;;;;;;5032397;27;98541;-78
2023/07/07 13:22:42;;;;;;;4.07;2.03;;;;;;;;;;5029848;28;100212;-78
2023/07/07 13:25:17;;;;;;;3.53;2.00;;;;;;;;;;5049432;27;98242;-78
2023/07/07 13:27:44;;;;;;;4.35;2.35;;;;;;;;;;5050393;27;99642;-77
2023/07/07 13:30:18;;;;;;;3.45;2.63;;;;;;;;;;5050044;27;99064;-77
2023/07/07 13:32:45;;;;;;;5.53;2.15;;;;;;;;;;5051753;27;98373;-76
2023/07/07 13:35:11;;;;;;;2.78;2.38;;;;;;;;;;5044637;27;98505;-76
2023/07/07 13:37:38;;;;;;;2.08;1.98;;;;;;;;;;5031380;27;99202;-76
2023/07/07 13:40:05;;;;;;;2.78;2.00;;;;;;;;;;5050842;27;98654;-76
2023/07/07 13:42:33;;;;;;;1.92;1.83;;;;;;;;;;5050007;27;99948;-76
2023/07/07 13:45:01;;;;;;;3.83;2.10;;;;;;;;;;5050699;27;98400;-76
2023/07/07 13:47:30;;;;;;;3.17;2.53;;;;;;;;;;5045020;27;99505;-76
2023/07/07 13:50:01;;;;;;;2.08;1.88;;;;;;;;;;5050872;27;98893;-75
2023/07/07 13:52:29;;;;;;;3.22;1.90;;;;;;;;;;5040761;27;98352;-76
2023/07/07 13:54:56;;;;;;;8.27;2.25;;;;;;;;;;5031459;27;98421;-76
2023/07/07 13:57:27;;;;;;;3.05;2.00;;;;;;;;;;5046371;27;99159;-74
2023/07/07 13:59:54;;;;;;;2.88;1.90;;;;;;;;;;5050382;27;98156;-76
2023/07/07 14:02:21;;;;;;;4.55;1.80;;;;;;;;;;5053924;27;99198;-76
2023/07/07 14:04:56;;;;;;;2.50;1.90;;;;;;;;;;5049765;27;98707;-76
2023/07/07 14:07:22;;;;;;;2.03;1.80;;;;;;;;;;5052362;27;99261;-77
2023/07/07 14:09:50;;;;;;;2.13;2.00;;;;;;;;;;5053690;27;99821;-75
2023/07/07 14:12:23;;;;;;;4.00;2.10;;;;;;;;;;5053316;27;98246;-77
2023/07/07 14:14:52;;;;;;;7.10;2.25;;;;;;;;;;5051683;27;99722;-77
2023/07/07 14:17:19;;;;;;;1.98;1.80;;;;;;;;;;5050868;27;99857;-76
2023/07/07 14:19:51;;;;;;;3.63;2.65;;;;;;;;;;5048408;27;98215;-75
2023/07/07 14:22:18;;;;;;;2.63;2.08;;;;;;;;;;5054225;27;98731;-75
2023/07/07 14:24:45;;;;;;;2.35;1.80;;;;;;;;;;5050501;27;98258;-77
2023/07/07 14:27:12;;;;;;;2.95;2.28;;;;;;;;;;5051655;27;99457;-77
2023/07/07 14:29:42;;;;;;;1.92;1.83;;;;;;;;;;5050484;27;98978;-78
2023/07/07 14:32:14;;;;;;;4.03;1.95;;;;;;;;;;5050784;27;98213;-78
2023/07/07 14:34:44;;;;;;;5.10;2.05;;;;;;;;;;5050973;27;98543;-78
2023/07/07 14:37:15;;;;;;;2.80;2.03;;;;;;;;;;5039250;27;100359;-77
2023/07/07 14:39:48;;;;;;;3.97;2.22;;;;;;;;;;5045826;27;98846;-77
2023/07/07 14:42:16;;;;;;;3.00;2.35;;;;;;;;;;5049360;27;99719;-77
2023/07/07 14:44:47;;;;;;;1.60;1.50;;;;;;;;;;5050870;27;99879;-77
2023/07/07 14:47:16;;;;;;;2.40;2.07;;;;;;;;;;5044593;27;99133;-77
2023/07/07 14:49:42;;;;;;;5.53;2.13;;;;;;;;;;5049480;27;100114;-77
2023/07/07 14:52:29;;;;;;;6.75;2.15;;;;;;;;;;5051169;27;98233;-78
2023/07/07 14:54:57;;;;;;;2.83;2.33;;;;;;;;;;5051086;27;99255;-77
2023/07/07 14:57:24;;;;;;;3.80;2.40;;;;;;;;;;5050443;27;98870;-77
2023/07/07 14:59:50;;;;;;;2.92;2.10;;;;;;;;;;5047660;27;98466;-76